LIBR/BDS METAR and TAF weather

Enter ICAO airport designator
Station Type Date Time Source
LIBR METAR 2022/01/26 07:20 UTC NOAA

LIBR 260720Z 01008KT CAVOK 09/M01 Q1026


Station Type Date Time Source
LIBR Decoded METAR 2022/01/26 07:20 UTC NOAA

Brindisi, Italy (LIBR) 40-39N 017-57E 10M
Jan 26, 2022 - 02:20 AM EST / 2022.01.26 0720 UTC
Wind: from the N (010 degrees) at 9 MPH (8 KT):0
Visibility: greater than 7 mile(s):0
Temperature: 48 F (9 C)
Dew Point: 30 F (-1 C)
Relative Humidity: 49%
Pressure (altimeter): 30.30 in. Hg (1026 hPa)
ob: LIBR 260720Z 01008KT CAVOK 09/M01 Q1026
cycle: 7

Station Type Date Time Source
LIBR TAF 2022/01/26 06:21 UTC NOAA

TAF LIBR 260500Z 2606/2706 35012KT 9999 FEW030

Example: see airport list